createdAt,value
2023-02-24T00:01:25.571Z,7.95
2023-02-24T00:03:06.432Z,7.92
2023-02-24T00:04:39.970Z,7.93
2023-02-24T00:06:12.543Z,7.91
2023-02-24T00:07:44.976Z,7.88
2023-02-24T00:09:21.431Z,7.86
2023-02-24T00:10:53.520Z,7.84
2023-02-24T00:12:25.662Z,7.82
2023-02-24T00:13:57.994Z,7.79
2023-02-24T00:15:30.284Z,7.76
2023-02-24T00:17:02.802Z,7.72
2023-02-24T00:18:35.552Z,7.69
2023-02-24T00:20:12.176Z,7.64
2023-02-24T00:21:45.425Z,7.63
2023-02-24T00:23:18.509Z,7.56
2023-02-24T00:24:50.804Z,7.51
2023-02-24T00:26:22.861Z,7.48
2023-02-24T00:28:01.679Z,7.48
2023-02-24T00:29:33.960Z,7.46
2023-02-24T00:31:10.826Z,7.42
2023-02-24T00:32:43.101Z,7.42
2023-02-24T00:34:15.712Z,7.45
2023-02-24T00:35:47.750Z,7.44
2023-02-24T00:37:23.992Z,7.43
2023-02-24T00:38:58.389Z,7.43
2023-02-24T00:40:30.950Z,7.46
2023-02-24T00:42:06.436Z,7.45
2023-02-24T00:43:46.754Z,7.44
2023-02-24T00:45:18.830Z,7.41
2023-02-24T00:46:51.614Z,7.42
2023-02-24T00:48:28.955Z,7.41
2023-02-24T00:50:01.047Z,7.42
2023-02-24T00:51:40.528Z,7.41
2023-02-24T00:53:12.699Z,7.42
2023-02-24T00:54:46.994Z,7.41
2023-02-24T00:56:19.209Z,7.41
2023-02-24T00:57:51.393Z,7.43
2023-02-24T00:59:24.212Z,7.44
2023-02-24T01:00:58.154Z,7.44
2023-02-24T01:02:32.211Z,7.44
2023-02-24T01:04:05.804Z,7.42
2023-02-24T01:05:38.121Z,7.43
2023-02-24T01:07:11.564Z,7.45
2023-02-24T01:08:47.627Z,7.42
2023-02-24T01:10:20.959Z,7.46
2023-02-24T01:12:22.238Z,7.45
2023-02-24T01:13:54.702Z,7.44
2023-02-24T01:15:26.942Z,7.46
2023-02-24T01:16:59.907Z,7.46
2023-02-24T01:18:31.835Z,7.48
2023-02-24T01:20:16.578Z,7.53
2023-02-24T01:21:55.327Z,7.56
2023-02-24T01:23:27.649Z,7.57
2023-02-24T01:24:59.822Z,7.58
2023-02-24T01:26:31.933Z,7.60
2023-02-24T01:28:05.635Z,7.63
2023-02-24T01:29:39.860Z,7.66
2023-02-24T01:31:20.812Z,7.66
2023-02-24T01:32:53.584Z,7.66
2023-02-24T01:34:27.504Z,7.69
2023-02-24T01:36:11.305Z,7.71
2023-02-24T01:37:45.434Z,7.71
2023-02-24T01:39:17.836Z,7.73
2023-02-24T01:40:59.469Z,7.72
2023-02-24T01:42:32.882Z,7.73
2023-02-24T01:44:09.698Z,7.72
2023-02-24T01:45:41.894Z,7.71
2023-02-24T01:47:16.317Z,7.71
2023-02-24T01:48:51.914Z,7.72
2023-02-24T01:50:26.280Z,7.72
2023-02-24T01:52:03.581Z,7.72
2023-02-24T01:53:36.122Z,7.72
2023-02-24T01:55:14.535Z,7.73
2023-02-24T01:56:50.708Z,7.75
2023-02-24T01:58:28.647Z,7.75
2023-02-24T02:00:19.594Z,7.76
2023-02-24T02:01:55.473Z,7.80
2023-02-24T02:03:36.463Z,7.81
2023-02-24T02:05:10.484Z,7.81
2023-02-24T02:06:42.922Z,7.82
2023-02-24T02:08:18.323Z,7.83
2023-02-24T02:09:54.975Z,7.84
2023-02-24T02:11:27.474Z,7.85
2023-02-24T02:13:00.832Z,7.87
2023-02-24T02:14:33.193Z,7.88
2023-02-24T02:16:26.799Z,7.88
2023-02-24T02:18:17.519Z,7.86
2023-02-24T02:20:16.060Z,7.87
2023-02-24T02:22:07.011Z,7.88
2023-02-24T02:24:04.397Z,7.90
2023-02-24T02:25:57.841Z,7.91
2023-02-24T02:27:33.063Z,7.94
2023-02-24T02:29:14.174Z,7.93
2023-02-24T02:31:28.907Z,7.92
2023-02-24T02:33:27.621Z,7.93
2023-02-24T02:35:14.620Z,7.93
2023-02-24T02:37:08.616Z,7.93
2023-02-24T02:38:57.611Z,7.90
2023-02-24T02:40:45.850Z,7.86
2023-02-24T02:42:32.766Z,7.82
2023-02-24T02:44:13.541Z,7.81
2023-02-24T02:45:55.968Z,7.80
2023-02-24T02:47:54.009Z,7.77
2023-02-24T02:49:42.263Z,7.76
2023-02-24T02:51:19.638Z,7.73
2023-02-24T02:53:02.945Z,7.72
2023-02-24T02:54:49.657Z,7.70
2023-02-24T02:56:48.008Z,7.69
2023-02-24T02:58:27.101Z,7.61
2023-02-24T03:00:13.126Z,7.61
2023-02-24T03:01:47.297Z,7.63
2023-02-24T03:03:19.723Z,7.63
2023-02-24T03:04:57.457Z,7.59
2023-02-24T03:06:41.563Z,7.56
2023-02-24T03:08:18.317Z,7.56
2023-02-24T03:09:57.269Z,7.57
2023-02-24T03:11:32.591Z,7.57
2023-02-24T03:13:08.904Z,7.54
2023-02-24T03:14:51.207Z,7.56
2023-02-24T03:16:24.953Z,7.57
2023-02-24T03:18:12.095Z,7.58
2023-02-24T03:19:47.281Z,7.55
2023-02-24T03:21:41.087Z,7.56
2023-02-24T03:23:17.858Z,7.60
2023-02-24T03:24:49.935Z,7.58
2023-02-24T03:26:37.722Z,7.56
2023-02-24T03:28:49.600Z,7.56
2023-02-24T03:30:29.048Z,7.54
2023-02-24T03:32:16.390Z,7.54
2023-02-24T03:34:00.592Z,7.54
2023-02-24T03:35:38.590Z,7.53
2023-02-24T03:37:11.851Z,7.54
2023-02-24T03:38:44.564Z,7.51
2023-02-24T03:40:18.671Z,7.49
2023-02-24T03:42:01.206Z,7.48
2023-02-24T03:43:39.332Z,7.45
2023-02-24T03:45:12.357Z,7.44
2023-02-24T03:46:44.621Z,7.45
2023-02-24T03:48:17.425Z,7.44
2023-02-24T03:49:50.734Z,7.45
2023-02-24T03:51:25.280Z,7.51
2023-02-24T03:53:02.320Z,7.54
2023-02-24T03:54:43.024Z,7.55
2023-02-24T03:56:18.132Z,7.59
2023-02-24T03:58:03.751Z,7.61
2023-02-24T04:00:16.744Z,7.64
2023-02-24T04:01:57.956Z,7.63
2023-02-24T04:03:51.085Z,7.59
2023-02-24T04:06:05.053Z,7.51
2023-02-24T04:08:01.103Z,7.41
2023-02-24T04:09:33.391Z,7.38
2023-02-24T04:11:30.025Z,7.30
2023-02-24T04:13:10.416Z,7.26
2023-02-24T04:14:45.728Z,7.25
2023-02-24T04:16:28.946Z,7.18
2023-02-24T04:18:04.652Z,7.13
2023-02-24T04:19:43.656Z,7.06
2023-02-24T04:21:19.978Z,6.99
2023-02-24T04:22:57.080Z,6.89
2023-02-24T04:24:31.608Z,6.80
2023-02-24T04:26:06.688Z,6.73
2023-02-24T04:27:41.827Z,6.65
2023-02-24T04:29:23.790Z,6.55
2023-02-24T04:31:05.860Z,6.47
2023-02-24T04:32:42.937Z,6.40
2023-02-24T04:34:20.087Z,6.36
2023-02-24T04:35:53.557Z,6.29
2023-02-24T04:37:31.893Z,6.20
2023-02-24T04:39:05.086Z,6.11
2023-02-24T04:40:37.780Z,6.06
2023-02-24T04:42:09.880Z,6.03
2023-02-24T04:43:42.058Z,5.99
2023-02-24T04:45:22.989Z,5.94
2023-02-24T04:46:56.189Z,5.97
2023-02-24T04:48:30.290Z,6.02
2023-02-24T04:50:06.749Z,6.03
2023-02-24T04:51:42.523Z,6.04
2023-02-24T04:53:16.768Z,6.02
2023-02-24T04:54:48.898Z,5.99
2023-02-24T04:56:22.447Z,5.95
2023-02-24T04:57:54.792Z,5.91
2023-02-24T04:59:28.002Z,5.86
2023-02-24T05:01:00.551Z,5.81
2023-02-24T05:02:32.634Z,5.76
2023-02-24T05:04:05.298Z,5.74
2023-02-24T05:05:38.001Z,5.73
2023-02-24T05:07:12.791Z,5.74
2023-02-24T05:08:45.071Z,5.76
2023-02-24T05:10:18.717Z,5.80
2023-02-24T05:11:52.554Z,5.89
2023-02-24T05:13:28.216Z,5.95
2023-02-24T05:15:01.414Z,6.05
2023-02-24T05:16:33.666Z,6.12
2023-02-24T05:18:07.824Z,6.19
2023-02-24T05:19:58.197Z,6.26
2023-02-24T05:21:36.190Z,6.34
2023-02-24T05:23:10.064Z,6.40
2023-02-24T05:24:42.215Z,6.44
2023-02-24T05:26:17.693Z,6.48
2023-02-24T05:27:50.143Z,6.50
2023-02-24T05:29:22.438Z,6.53
2023-02-24T05:30:56.241Z,6.57
2023-02-24T05:32:28.614Z,6.62
2023-02-24T05:34:03.584Z,6.67
2023-02-24T05:35:36.928Z,6.73
2023-02-24T05:37:10.852Z,6.77
2023-02-24T05:39:15.071Z,6.83
2023-02-24T05:40:50.276Z,6.88
2023-02-24T05:42:22.334Z,6.93
2023-02-24T05:43:56.380Z,6.95
2023-02-24T05:45:30.490Z,7.01
2023-02-24T05:47:05.534Z,7.06
2023-02-24T05:48:37.841Z,7.12
2023-02-24T05:50:12.099Z,7.17
2023-02-24T05:51:54.689Z,7.20
2023-02-24T05:53:27.456Z,7.25
2023-02-24T05:55:01.045Z,7.30
2023-02-24T05:56:36.291Z,7.34
2023-02-24T05:58:08.370Z,7.39
2023-02-24T05:59:41.898Z,7.42
2023-02-24T06:01:21.877Z,7.48
2023-02-24T06:02:54.321Z,7.54
2023-02-24T06:04:46.565Z,7.59
2023-02-24T06:06:18.890Z,7.65
2023-02-24T06:08:02.789Z,7.69
2023-02-24T06:09:35.366Z,7.72
2023-02-24T06:11:10.815Z,7.72
2023-02-24T06:12:43.134Z,7.70
2023-02-24T06:14:16.254Z,7.75
2023-02-24T06:15:50.652Z,7.77
2023-02-24T06:17:23.034Z,7.78
2023-02-24T06:18:58.049Z,7.82
2023-02-24T06:20:33.045Z,7.85
2023-02-24T06:22:10.841Z,7.88
2023-02-24T06:23:43.037Z,7.89
2023-02-24T06:25:15.143Z,7.87
2023-02-24T06:26:49.330Z,7.91
2023-02-24T06:28:21.464Z,7.92
2023-02-24T06:29:55.193Z,7.95
2023-02-24T06:31:27.870Z,7.95
2023-02-24T06:33:00.067Z,7.97
2023-02-24T06:34:33.242Z,7.99
2023-02-24T06:36:06.573Z,7.99
2023-02-24T06:37:39.644Z,7.98
2023-02-24T06:39:14.621Z,7.97
2023-02-24T06:40:47.626Z,8.00
2023-02-24T06:42:19.937Z,8.02
2023-02-24T06:43:53.021Z,8.05
2023-02-24T06:45:26.424Z,8.07
2023-02-24T06:46:58.970Z,8.09
2023-02-24T06:48:31.064Z,8.14
2023-02-24T06:50:06.861Z,8.13
2023-02-24T06:51:39.499Z,8.13
2023-02-24T06:53:17.077Z,8.16
2023-02-24T06:54:49.690Z,8.24
2023-02-24T06:56:21.834Z,8.31
2023-02-24T06:58:04.475Z,8.38
2023-02-24T06:59:37.222Z,8.50
2023-02-24T07:01:17.733Z,8.57
2023-02-24T07:02:49.979Z,8.62
2023-02-24T07:04:27.793Z,8.68
2023-02-24T07:06:20.580Z,8.85
2023-02-24T07:07:52.995Z,9.03
2023-02-24T07:09:26.853Z,9.25
2023-02-24T07:10:59.981Z,9.50
2023-02-24T07:12:32.289Z,9.76
2023-02-24T07:14:07.951Z,9.94
2023-02-24T07:15:40.123Z,10.02
2023-02-24T07:17:15.104Z,10.10
2023-02-24T07:18:48.932Z,10.23
2023-02-24T07:20:25.583Z,10.36
2023-02-24T07:22:00.565Z,10.52
2023-02-24T07:23:32.765Z,10.64
2023-02-24T07:25:07.284Z,10.80
2023-02-24T07:26:41.830Z,10.93
2023-02-24T07:28:14.455Z,11.08
2023-02-24T07:29:46.680Z,11.26
2023-02-24T07:31:22.455Z,11.51
2023-02-24T07:32:55.573Z,11.64
2023-02-24T07:34:28.426Z,11.66
2023-02-24T07:36:00.656Z,11.65
2023-02-24T07:37:32.983Z,11.71
2023-02-24T07:39:08.160Z,11.80
2023-02-24T07:40:40.847Z,11.93
2023-02-24T07:42:13.868Z,12.00
2023-02-24T07:43:51.949Z,12.18
2023-02-24T07:45:24.949Z,12.32
2023-02-24T07:46:59.509Z,12.38
2023-02-24T07:48:31.638Z,12.47
2023-02-24T07:50:06.123Z,12.58
2023-02-24T07:51:38.322Z,12.69
2023-02-24T07:53:10.516Z,12.73
2023-02-24T07:54:43.278Z,12.71
2023-02-24T07:56:17.832Z,12.70
2023-02-24T07:57:50.030Z,12.72
2023-02-24T07:59:33.258Z,12.80
2023-02-24T08:01:08.884Z,12.84
2023-02-24T08:02:41.045Z,12.81
2023-02-24T08:04:16.051Z,12.73
2023-02-24T08:05:48.282Z,12.60
2023-02-24T08:07:25.201Z,12.60
2023-02-24T08:09:16.721Z,12.73
2023-02-24T08:10:48.904Z,12.83
2023-02-24T08:12:22.865Z,12.86
2023-02-24T08:13:57.913Z,12.86
2023-02-24T08:15:34.356Z,12.92
2023-02-24T08:17:06.699Z,12.95
2023-02-24T08:18:40.589Z,12.98
2023-02-24T08:20:13.441Z,13.09
2023-02-24T08:21:50.582Z,13.19
2023-02-24T08:23:23.678Z,13.32
2023-02-24T08:25:06.321Z,13.40
2023-02-24T08:26:44.861Z,13.33
2023-02-24T08:28:17.798Z,13.22
2023-02-24T08:30:03.016Z,13.19
2023-02-24T08:31:37.031Z,13.14
2023-02-24T08:33:16.013Z,12.93
2023-02-24T08:34:49.622Z,12.72
2023-02-24T08:36:21.776Z,12.59
2023-02-24T08:37:54.761Z,12.58
2023-02-24T08:39:30.249Z,12.56
2023-02-24T08:41:05.019Z,12.48
2023-02-24T08:42:37.240Z,12.48
2023-02-24T08:44:10.364Z,12.48
2023-02-24T08:45:56.738Z,12.43
2023-02-24T08:47:36.154Z,12.45
2023-02-24T08:49:11.044Z,12.44
2023-02-24T08:50:45.676Z,12.46
2023-02-24T08:52:20.422Z,12.55
2023-02-24T08:53:58.935Z,12.62
2023-02-24T08:55:33.081Z,12.78
2023-02-24T08:57:08.425Z,12.84
2023-02-24T08:58:48.834Z,12.99
2023-02-24T09:00:41.088Z,13.08
2023-02-24T09:02:19.243Z,13.00
2023-02-24T09:03:58.653Z,12.95
2023-02-24T09:05:33.537Z,12.97
2023-02-24T09:07:12.099Z,12.95
2023-02-24T09:08:46.084Z,12.91
2023-02-24T09:10:19.138Z,12.99
2023-02-24T09:11:56.331Z,13.12
2023-02-24T09:13:33.105Z,13.17
2023-02-24T09:15:07.476Z,13.25
2023-02-24T09:16:52.497Z,13.37
2023-02-24T09:18:30.353Z,13.46
2023-02-24T09:20:22.695Z,13.57
2023-02-24T09:22:21.081Z,13.75
2023-02-24T09:23:53.636Z,14.01
2023-02-24T09:25:40.695Z,14.13
2023-02-24T09:27:17.326Z,14.13
2023-02-24T09:28:49.549Z,14.09
2023-02-24T09:30:36.111Z,14.09
2023-02-24T09:32:13.614Z,14.20
2023-02-24T09:33:51.207Z,14.32
2023-02-24T09:35:31.502Z,14.42
2023-02-24T09:37:05.272Z,14.52
2023-02-24T09:38:59.733Z,14.62
2023-02-24T09:40:39.848Z,14.76
2023-02-24T09:42:12.847Z,14.93
2023-02-24T09:43:45.060Z,15.06
2023-02-24T09:45:35.302Z,15.21
2023-02-24T09:47:36.999Z,15.31
2023-02-24T09:49:17.362Z,15.42
2023-02-24T09:51:15.684Z,15.50
2023-02-24T09:53:00.073Z,15.68
2023-02-24T09:54:37.588Z,15.87
2023-02-24T09:56:22.805Z,15.98
2023-02-24T09:58:34.752Z,15.99
2023-02-24T10:00:25.675Z,15.93
2023-02-24T10:02:27.474Z,15.96
2023-02-24T10:04:20.124Z,16.06
2023-02-24T10:06:12.304Z,16.01
2023-02-24T10:07:44.856Z,15.83
2023-02-24T10:10:18.668Z,15.65
2023-02-24T10:12:04.209Z,15.56
2023-02-24T10:14:03.504Z,15.52
2023-02-24T10:15:57.064Z,15.58
2023-02-24T10:17:40.342Z,15.66
2023-02-24T10:19:24.819Z,15.74
2023-02-24T10:21:10.457Z,15.83
2023-02-24T10:23:33.073Z,15.90
2023-02-24T10:25:39.331Z,16.05
2023-02-24T10:27:24.031Z,16.19
2023-02-24T10:29:22.771Z,16.22
2023-02-24T10:31:25.645Z,16.31
2023-02-24T10:33:05.495Z,16.44
2023-02-24T10:34:37.589Z,16.50
2023-02-24T10:36:19.889Z,16.56
2023-02-24T10:37:53.416Z,16.65
2023-02-24T10:39:26.115Z,16.62
2023-02-24T10:40:58.173Z,16.44
2023-02-24T10:42:32.763Z,16.28
2023-02-24T10:44:05.133Z,16.05
2023-02-24T10:45:45.321Z,15.85
2023-02-24T10:47:31.103Z,15.74
2023-02-24T10:49:09.630Z,15.57
2023-02-24T10:50:55.381Z,15.42
2023-02-24T10:52:51.074Z,15.24
2023-02-24T10:54:45.214Z,14.93
2023-02-24T10:56:27.099Z,14.74
2023-02-24T10:58:06.547Z,14.62
2023-02-24T10:59:58.663Z,14.44
2023-02-24T11:01:43.809Z,14.21
2023-02-24T11:03:32.742Z,14.13
2023-02-24T11:05:27.425Z,14.06
2023-02-24T11:07:12.026Z,14.04
2023-02-24T11:08:54.788Z,14.00
2023-02-24T11:10:32.546Z,13.81
2023-02-24T11:12:31.984Z,13.62
2023-02-24T11:14:42.522Z,13.53
2023-02-24T11:16:33.046Z,13.53
2023-02-24T11:18:10.638Z,13.58
2023-02-24T11:20:00.140Z,13.66
2023-02-24T11:21:33.798Z,13.74
2023-02-24T11:23:10.039Z,13.89
2023-02-24T11:24:46.074Z,14.03
2023-02-24T11:26:31.982Z,14.19
2023-02-24T11:28:05.643Z,14.38
2023-02-24T11:30:18.959Z,14.53
2023-02-24T11:32:15.487Z,14.53
2023-02-24T11:33:55.216Z,14.55
2023-02-24T11:35:38.249Z,14.52
2023-02-24T11:37:24.219Z,14.56
2023-02-24T11:39:26.712Z,14.67
2023-02-24T11:41:22.618Z,14.87
2023-02-24T11:43:19.125Z,15.10
2023-02-24T11:45:03.138Z,15.34
2023-02-24T11:46:49.783Z,15.51
2023-02-24T11:48:27.565Z,15.73
2023-02-24T11:50:20.908Z,15.93
2023-02-24T11:51:54.339Z,16.16
2023-02-24T11:53:32.495Z,16.32
2023-02-24T11:55:13.197Z,16.48
2023-02-24T11:56:51.956Z,16.54
2023-02-24T11:58:32.051Z,16.47
2023-02-24T12:00:13.579Z,16.45
2023-02-24T12:01:57.582Z,16.39
2023-02-24T12:03:53.796Z,16.42
2023-02-24T12:05:36.907Z,16.49
2023-02-24T12:07:25.260Z,16.51
2023-02-24T12:09:03.729Z,16.51
2023-02-24T12:10:41.533Z,16.54
2023-02-24T12:12:13.824Z,16.61
2023-02-24T12:13:53.111Z,16.50
2023-02-24T12:15:34.123Z,16.46
2023-02-24T12:17:28.586Z,16.42
2023-02-24T12:19:20.051Z,16.44
2023-02-24T12:21:05.782Z,16.48
2023-02-24T12:23:19.456Z,16.50
2023-02-24T12:24:52.481Z,16.53
2023-02-24T12:26:48.134Z,16.54
2023-02-24T12:29:04.936Z,16.56
2023-02-24T12:30:49.036Z,16.48
2023-02-24T12:32:30.872Z,16.46
2023-02-24T12:34:15.720Z,16.48
2023-02-24T12:36:11.921Z,16.50
2023-02-24T12:37:51.124Z,16.46
2023-02-24T12:39:33.492Z,16.48
2023-02-24T12:41:15.572Z,16.42
2023-02-24T12:43:03.289Z,16.43
2023-02-24T12:44:53.005Z,16.43
2023-02-24T12:46:31.705Z,16.41
2023-02-24T12:48:15.983Z,16.34
2023-02-24T12:49:48.174Z,16.29
2023-02-24T12:51:23.694Z,16.28
2023-02-24T12:53:23.780Z,16.28
2023-02-24T12:55:14.445Z,16.24
2023-02-24T12:56:49.539Z,16.28
2023-02-24T12:58:28.765Z,16.34
2023-02-24T13:00:11.207Z,16.41
2023-02-24T13:02:06.167Z,16.46
2023-02-24T13:04:03.574Z,16.49
2023-02-24T13:06:03.008Z,16.53
2023-02-24T13:07:50.920Z,16.62
2023-02-24T13:09:44.047Z,16.61
2023-02-24T13:11:30.070Z,16.64
2023-02-24T13:13:15.682Z,16.65
2023-02-24T13:14:49.373Z,16.63
2023-02-24T13:16:29.806Z,16.66
2023-02-24T13:18:02.527Z,16.72
2023-02-24T13:19:35.429Z,16.77
2023-02-24T13:21:20.131Z,16.80
2023-02-24T13:22:53.138Z,16.80
2023-02-24T13:24:26.336Z,16.77
2023-02-24T13:25:59.182Z,16.69
2023-02-24T13:27:36.138Z,16.64
2023-02-24T13:29:14.112Z,16.60
2023-02-24T13:30:46.487Z,16.50
2023-02-24T13:32:39.263Z,16.45
2023-02-24T13:34:33.608Z,16.51
2023-02-24T13:36:13.516Z,16.52
2023-02-24T13:37:47.317Z,16.48
2023-02-24T13:39:37.577Z,16.45
2023-02-24T13:41:38.532Z,16.53
2023-02-24T13:43:25.976Z,16.65
2023-02-24T13:45:18.209Z,16.75
2023-02-24T13:47:25.703Z,16.83
2023-02-24T13:49:05.811Z,16.87
2023-02-24T13:50:46.065Z,16.85
2023-02-24T13:53:07.720Z,16.69
2023-02-24T13:54:48.964Z,16.46
2023-02-24T13:56:51.333Z,16.28
2023-02-24T13:58:42.069Z,16.17
2023-02-24T14:00:26.239Z,16.10
2023-02-24T14:02:00.997Z,16.06
2023-02-24T14:03:34.597Z,16.02
2023-02-24T14:05:16.887Z,15.97
2023-02-24T14:06:53.824Z,15.91
2023-02-24T14:08:36.376Z,15.89
2023-02-24T14:10:28.170Z,15.87
2023-02-24T14:12:34.877Z,15.77
2023-02-24T14:14:16.391Z,15.68
2023-02-24T14:15:49.002Z,15.64
2023-02-24T14:17:24.582Z,15.62
2023-02-24T14:19:01.781Z,15.54
2023-02-24T14:20:38.027Z,15.51
2023-02-24T14:22:19.865Z,15.50
2023-02-24T14:24:00.137Z,15.49
2023-02-24T14:25:38.686Z,15.49
2023-02-24T14:27:23.619Z,15.49
2023-02-24T14:29:00.975Z,15.54
2023-02-24T14:30:37.275Z,15.61
2023-02-24T14:32:21.009Z,15.66
2023-02-24T14:33:58.548Z,15.69
2023-02-24T14:35:35.044Z,15.75
2023-02-24T14:37:08.138Z,15.79
2023-02-24T14:38:41.982Z,15.82
2023-02-24T14:40:15.984Z,15.80
2023-02-24T14:41:49.789Z,15.74
2023-02-24T14:43:22.357Z,15.67
2023-02-24T14:44:56.567Z,15.58
2023-02-24T14:46:28.835Z,15.47
2023-02-24T14:48:01.338Z,15.33
2023-02-24T14:49:35.466Z,15.16
2023-02-24T14:51:16.069Z,15.00
2023-02-24T14:52:53.951Z,14.86
2023-02-24T14:54:56.695Z,14.67
2023-02-24T14:56:32.438Z,14.54
2023-02-24T14:58:16.830Z,14.42
2023-02-24T14:59:53.406Z,14.27
2023-02-24T15:01:40.864Z,14.19
2023-02-24T15:03:24.909Z,14.10
2023-02-24T15:04:57.700Z,13.98
2023-02-24T15:06:32.377Z,13.89
2023-02-24T15:08:04.719Z,13.83
2023-02-24T15:12:22.933Z,13.68
2023-02-24T15:13:58.576Z,13.70
2023-02-24T15:15:38.606Z,13.69
2023-02-24T15:17:16.922Z,13.70
2023-02-24T15:19:00.686Z,13.68
2023-02-24T15:20:40.779Z,13.68
2023-02-24T15:22:34.665Z,13.67
2023-02-24T15:24:19.449Z,13.65
2023-02-24T15:25:52.008Z,13.61
2023-02-24T15:27:28.168Z,13.60
2023-02-24T15:29:14.290Z,13.62
2023-02-24T15:31:19.890Z,13.61
2023-02-24T15:33:04.609Z,13.59
2023-02-24T15:34:37.852Z,13.60
2023-02-24T15:36:19.160Z,13.58
2023-02-24T15:37:53.317Z,13.56
2023-02-24T15:39:31.209Z,13.55
2023-02-24T15:41:05.604Z,13.50
2023-02-24T15:42:37.667Z,13.50
2023-02-24T15:44:55.630Z,13.45
2023-02-24T15:46:33.792Z,13.43
2023-02-24T15:48:25.048Z,13.39
2023-02-24T15:49:57.405Z,13.36
2023-02-24T15:51:35.473Z,13.29
2023-02-24T15:53:12.953Z,13.23
2023-02-24T15:54:45.055Z,13.15
2023-02-24T15:56:17.380Z,13.07
2023-02-24T15:57:58.811Z,12.97
2023-02-24T15:59:31.174Z,12.87
2023-02-24T16:01:03.299Z,12.80
2023-02-24T16:02:35.609Z,12.71
2023-02-24T16:04:09.776Z,12.62
2023-02-24T16:05:42.059Z,12.53
2023-02-24T16:07:21.296Z,12.46
2023-02-24T16:08:55.004Z,12.42
2023-02-24T16:10:29.190Z,12.35
2023-02-24T16:12:05.776Z,12.31
2023-02-24T16:13:37.854Z,12.28
2023-02-24T16:15:16.853Z,12.24
2023-02-24T16:16:49.070Z,12.23
2023-02-24T16:18:24.712Z,12.20
2023-02-24T16:19:56.983Z,12.19
2023-02-24T16:21:29.216Z,12.17
2023-02-24T16:23:03.922Z,12.15
2023-02-24T16:24:36.065Z,12.12
2023-02-24T16:26:26.350Z,12.08
2023-02-24T16:27:58.590Z,12.08
2023-02-24T16:29:30.696Z,12.04
2023-02-24T16:31:03.389Z,12.01
2023-02-24T16:32:35.759Z,11.97
2023-02-24T16:34:08.708Z,11.96
2023-02-24T16:35:45.728Z,11.98
2023-02-24T16:37:21.116Z,11.96
2023-02-24T16:38:53.255Z,11.98
2023-02-24T16:40:30.689Z,11.95
2023-02-24T16:42:06.329Z,11.96
2023-02-24T16:43:39.003Z,11.97
2023-02-24T16:45:11.436Z,11.96
2023-02-24T16:46:45.128Z,11.97
2023-02-24T16:48:23.514Z,11.97
2023-02-24T16:49:57.901Z,11.99
2023-02-24T16:51:31.201Z,12.00
2023-02-24T16:53:03.428Z,11.99
2023-02-24T16:54:35.533Z,11.97
2023-02-24T16:56:08.294Z,11.96
2023-02-24T16:57:41.116Z,11.96
2023-02-24T16:59:13.418Z,11.94
2023-02-24T17:00:48.009Z,11.94
2023-02-24T17:02:25.733Z,11.95
2023-02-24T17:03:58.018Z,11.93
2023-02-24T17:05:30.136Z,11.94
2023-02-24T17:07:02.226Z,11.93
2023-02-24T17:08:34.595Z,11.90
2023-02-24T17:10:07.352Z,11.84
2023-02-24T17:11:39.366Z,11.78
2023-02-24T17:13:17.481Z,11.72
2023-02-24T17:14:49.829Z,11.65
2023-02-24T17:16:22.365Z,11.55
2023-02-24T17:17:54.916Z,11.50
2023-02-24T17:19:27.136Z,11.44
2023-02-24T17:20:59.736Z,11.37
2023-02-24T17:22:31.934Z,11.35
2023-02-24T17:24:04.910Z,11.33
2023-02-24T17:25:37.133Z,11.29
2023-02-24T17:27:13.557Z,11.25
2023-02-24T17:28:46.045Z,11.22
2023-02-24T17:30:25.190Z,11.18
2023-02-24T17:31:57.500Z,11.16
2023-02-24T17:33:29.945Z,11.15
2023-02-24T17:35:02.100Z,11.13
2023-02-24T17:36:35.423Z,11.10
2023-02-24T17:38:14.927Z,11.05
2023-02-24T17:39:47.041Z,11.01
2023-02-24T17:41:19.220Z,10.95
2023-02-24T17:42:51.550Z,10.93
2023-02-24T17:44:23.671Z,10.89
2023-02-24T17:45:55.891Z,10.89
2023-02-24T17:47:28.418Z,10.87
2023-02-24T17:49:03.230Z,10.88
2023-02-24T17:50:35.318Z,10.90
2023-02-24T17:52:07.434Z,10.91
2023-02-24T17:53:39.452Z,10.96
2023-02-24T17:55:11.710Z,10.98
2023-02-24T17:56:43.917Z,11.00
2023-02-24T17:58:16.084Z,11.04
2023-02-24T17:59:48.176Z,11.07
2023-02-24T18:01:20.404Z,11.12
2023-02-24T18:02:56.094Z,11.15
2023-02-24T18:04:29.086Z,11.22
2023-02-24T18:06:05.506Z,11.22
2023-02-24T18:07:37.973Z,11.26
2023-02-24T18:09:10.208Z,11.27
2023-02-24T18:10:42.433Z,11.32
2023-02-24T18:12:14.577Z,11.36
2023-02-24T18:13:48.651Z,11.36
2023-02-24T18:15:20.782Z,11.39
2023-02-24T18:16:53.192Z,11.40
2023-02-24T18:18:26.861Z,11.39
2023-02-24T18:19:59.193Z,11.43
2023-02-24T18:21:31.522Z,11.42
2023-02-24T18:23:03.648Z,11.45
2023-02-24T18:24:36.944Z,11.46
2023-02-24T18:26:11.406Z,11.47
2023-02-24T18:27:43.516Z,11.47
2023-02-24T18:29:15.734Z,11.47
2023-02-24T18:30:48.025Z,11.50
2023-02-24T18:32:20.539Z,11.52
2023-02-24T18:33:53.559Z,11.52
2023-02-24T18:35:25.918Z,11.54
2023-02-24T18:36:58.142Z,11.55
2023-02-24T18:38:30.302Z,11.55
2023-02-24T18:40:02.409Z,11.50
2023-02-24T18:41:34.552Z,11.51
2023-02-24T18:43:06.672Z,11.47
2023-02-24T18:44:38.793Z,11.46
2023-02-24T18:46:13.349Z,11.42
2023-02-24T18:47:46.492Z,11.41
2023-02-24T18:49:18.615Z,11.40
2023-02-24T18:50:54.558Z,11.36
2023-02-24T18:52:26.703Z,11.33
2023-02-24T18:54:00.442Z,11.33
2023-02-24T18:55:35.707Z,11.27
2023-02-24T18:57:07.919Z,11.28
2023-02-24T18:58:40.858Z,11.28
2023-02-24T19:00:14.243Z,11.28
2023-02-24T19:01:46.713Z,11.27
2023-02-24T19:03:19.026Z,11.25
2023-02-24T19:04:51.258Z,11.20
2023-02-24T19:06:26.941Z,11.14
2023-02-24T19:07:59.159Z,11.08
2023-02-24T19:09:31.293Z,10.98
2023-02-24T19:11:09.174Z,10.92
2023-02-24T19:12:41.432Z,10.88
2023-02-24T19:14:14.167Z,10.86
2023-02-24T19:15:46.255Z,10.83
2023-02-24T19:17:19.393Z,10.83
2023-02-24T19:18:53.287Z,10.83
2023-02-24T19:20:25.391Z,10.82
2023-02-24T19:21:57.582Z,10.80
2023-02-24T19:23:29.668Z,10.78
2023-02-24T19:25:01.996Z,10.80
2023-02-24T19:26:34.691Z,10.79
2023-02-24T19:28:06.909Z,10.81
2023-02-24T19:29:39.009Z,10.81
2023-02-24T19:31:17.260Z,10.81
2023-02-24T19:32:49.855Z,10.84
2023-02-24T19:34:22.731Z,10.88
2023-02-24T19:35:59.599Z,10.90
2023-02-24T19:37:32.923Z,10.95
2023-02-24T19:39:08.810Z,10.97
2023-02-24T19:40:41.465Z,11.00
2023-02-24T19:42:13.568Z,11.01
2023-02-24T19:43:45.805Z,11.03
2023-02-24T19:45:19.169Z,11.03
2023-02-24T19:46:51.309Z,11.05
2023-02-24T19:48:23.431Z,11.07
2023-02-24T19:49:55.665Z,11.09
2023-02-24T19:51:27.851Z,11.08
2023-02-24T19:52:59.920Z,11.07
2023-02-24T19:54:32.049Z,11.04
2023-02-24T19:56:04.632Z,11.00
2023-02-24T19:57:36.851Z,11.00
2023-02-24T19:59:09.024Z,10.97
2023-02-24T20:00:41.111Z,10.96
2023-02-24T20:02:13.176Z,10.91
2023-02-24T20:03:45.306Z,10.90
2023-02-24T20:05:17.527Z,10.90
2023-02-24T20:06:50.192Z,10.89
2023-02-24T20:08:22.351Z,10.90
2023-02-24T20:09:54.872Z,10.89
2023-02-24T20:11:29.803Z,10.85
2023-02-24T20:13:01.957Z,10.87
2023-02-24T20:14:34.151Z,10.86
2023-02-24T20:16:18.121Z,10.83
2023-02-24T20:17:50.622Z,10.85
2023-02-24T20:19:22.690Z,10.86
2023-02-24T20:20:57.817Z,10.85
2023-02-24T20:22:29.933Z,10.84
2023-02-24T20:24:03.816Z,10.84
2023-02-24T20:25:36.003Z,10.85
2023-02-24T20:27:08.801Z,10.88
2023-02-24T20:28:40.939Z,10.89
2023-02-24T20:30:13.566Z,10.94
2023-02-24T20:31:46.521Z,10.94
2023-02-24T20:33:19.500Z,10.94
2023-02-24T20:34:52.700Z,10.96
2023-02-24T20:36:26.959Z,10.97
2023-02-24T20:37:59.110Z,10.96
2023-02-24T20:39:33.106Z,10.95
2023-02-24T20:41:05.640Z,10.95
2023-02-24T20:42:37.772Z,10.89
2023-02-24T20:44:10.858Z,10.76
2023-02-24T20:45:43.082Z,10.66
2023-02-24T20:47:16.596Z,10.60
2023-02-24T20:48:51.426Z,10.54
2023-02-24T20:50:23.583Z,10.48
2023-02-24T20:51:55.707Z,10.40
2023-02-24T20:53:27.953Z,10.34
2023-02-24T20:55:00.117Z,10.28
2023-02-24T20:56:36.626Z,10.20
2023-02-24T20:58:08.899Z,10.19
2023-02-24T20:59:49.217Z,10.17
2023-02-24T21:01:28.161Z,10.15
2023-02-24T21:03:01.009Z,10.11
2023-02-24T21:04:33.027Z,10.06
2023-02-24T21:06:10.170Z,10.04
2023-02-24T21:07:42.647Z,10.04
2023-02-24T21:09:16.012Z,10.04
2023-02-24T21:10:48.306Z,10.04
2023-02-24T21:12:20.376Z,10.03
2023-02-24T21:13:53.058Z,10.01
2023-02-24T21:15:25.165Z,10.02
2023-02-24T21:16:57.336Z,10.03
2023-02-24T21:18:29.389Z,10.02
2023-02-24T21:20:04.585Z,10.03
2023-02-24T21:21:36.679Z,10.04
2023-02-24T21:23:09.537Z,10.05